Franktown, Virginia
Current Conditions -  °F | °C
As of 1:35 AM on Wednesday 28 Jan 2015 (Local Time) from KMFV Reporting Station
Clear Clear  
Wind Chill: 21°   Ceiling: Unl
Heat Index: 32°   Visibility: 10mi
Dew Point: 19°   Wind: 17mph
Humidity: 60%   Direction: 320°NW
Pressure: 29.94"   Gusts: 31mph
Location:  37.48°N, 75.88°W
Report Text: KMFV 280635Z AUTO 32015G27KT 10SM CLR 00/M07 A2994 RMK AO2
Loading
Personal Weather Stations






























Interactive Weather Map New forecast layout! Learn more

10-Day Weather Forecast

Advertisements
Track Severe Weather on mobile